createdAt,value
2018-12-15T00:01:02.809Z,39.13
2018-12-15T00:02:08.449Z,36.55
2018-12-15T00:03:14.111Z,40.58
2018-12-15T00:04:19.772Z,39.25
2018-12-15T00:05:46.313Z,35.48
2018-12-15T00:06:50.051Z,37.93
2018-12-15T00:07:53.787Z,33.80
2018-12-15T00:08:57.734Z,34.60
2018-12-15T00:10:01.521Z,34.20
2018-12-15T00:11:05.366Z,29.80
2018-12-15T00:12:09.122Z,36.30
2018-12-15T00:13:12.983Z,34.20
2018-12-15T00:14:16.719Z,36.03
2018-12-15T00:15:20.602Z,32.73
2018-12-15T00:16:24.332Z,31.40
2018-12-15T00:17:28.113Z,33.40
2018-12-15T00:18:31.880Z,30.70
2018-12-15T00:19:35.682Z,31.35
2018-12-15T00:20:39.539Z,32.05
2018-12-15T00:21:43.449Z,35.98
2018-12-15T00:22:47.195Z,33.55
2018-12-15T00:23:50.966Z,31.75
2018-12-15T00:24:54.763Z,32.73
2018-12-15T00:25:58.546Z,29.77
2018-12-15T00:27:02.306Z,33.25
2018-12-15T00:28:06.634Z,28.52
2018-12-15T00:29:10.423Z,31.70
2018-12-15T00:30:14.848Z,29.98
2018-12-15T00:31:18.836Z,34.10
2018-12-15T00:32:22.656Z,33.10
2018-12-15T00:33:26.505Z,34.80
2018-12-15T00:34:30.182Z,41.42
2018-12-15T00:35:33.941Z,28.65
2018-12-15T00:36:37.781Z,33.60
2018-12-15T00:37:41.610Z,34.50
2018-12-15T00:38:46.370Z,36.00
2018-12-15T00:39:49.997Z,36.35
2018-12-15T00:40:53.757Z,29.30
2018-12-15T00:41:57.543Z,27.40
2018-12-15T00:43:01.314Z,33.75
2018-12-15T00:44:05.062Z,25.25
2018-12-15T00:45:08.881Z,26.93
2018-12-15T00:46:12.651Z,44.42
2018-12-15T00:47:16.397Z,30.05
2018-12-15T00:48:20.119Z,33.55
2018-12-15T00:49:24.359Z,28.23
2018-12-15T00:50:28.124Z,42.13
2018-12-15T00:51:31.845Z,23.77
2018-12-15T00:52:35.628Z,25.02
2018-12-15T00:53:39.366Z,27.50
2018-12-15T00:54:43.399Z,24.77
2018-12-15T00:55:47.238Z,30.35
2018-12-15T00:56:51.105Z,36.15
2018-12-15T00:57:54.814Z,31.15
2018-12-15T00:58:58.557Z,28.35
2018-12-15T01:00:02.352Z,22.42
2018-12-15T01:01:06.146Z,23.18
2018-12-15T01:02:09.966Z,18.35
2018-12-15T01:03:13.739Z,20.95
2018-12-15T01:04:17.482Z,23.95
2018-12-15T01:05:21.195Z,21.48
2018-12-15T01:06:24.948Z,22.62
2018-12-15T01:07:28.730Z,21.90
2018-12-15T01:08:32.690Z,23.98
2018-12-15T01:09:36.485Z,21.48
2018-12-15T01:10:40.304Z,33.48
2018-12-15T01:11:44.134Z,47.13
2018-12-15T01:12:48.995Z,22.85
2018-12-15T01:13:52.878Z,18.90
2018-12-15T01:14:56.638Z,32.93
2018-12-15T01:16:00.433Z,26.00
2018-12-15T01:17:04.262Z,27.10
2018-12-15T01:18:08.083Z,24.65
2018-12-15T01:19:11.759Z,25.60
2018-12-15T01:20:15.520Z,26.97
2018-12-15T01:21:19.254Z,23.98
2018-12-15T01:22:23.045Z,24.47
2018-12-15T01:23:26.796Z,22.07
2018-12-15T01:24:30.519Z,21.97
2018-12-15T01:25:34.255Z,25.40
2018-12-15T01:26:38.007Z,19.85
2018-12-15T01:27:41.726Z,24.20
2018-12-15T01:28:45.421Z,23.38
2018-12-15T01:29:49.229Z,23.45
2018-12-15T01:30:53.118Z,25.17
2018-12-15T01:31:56.910Z,22.85
2018-12-15T01:33:00.688Z,23.90
2018-12-15T01:34:04.532Z,21.10
2018-12-15T01:35:08.503Z,21.50
2018-12-15T01:36:12.237Z,30.20
2018-12-15T01:37:15.994Z,25.25
2018-12-15T01:38:19.742Z,22.90
2018-12-15T01:39:23.558Z,24.82
2018-12-15T01:40:27.366Z,22.58
2018-12-15T01:41:31.112Z,26.17
2018-12-15T01:42:34.886Z,25.32
2018-12-15T01:43:38.691Z,25.37
2018-12-15T01:44:42.472Z,22.25
2018-12-15T01:45:46.162Z,23.77
2018-12-15T01:46:50.089Z,22.70
2018-12-15T01:47:54.883Z,23.70
2018-12-15T01:48:58.678Z,20.52
2018-12-15T01:50:02.533Z,25.65
2018-12-15T01:51:06.279Z,23.95
2018-12-15T01:52:10.002Z,25.57
2018-12-15T01:53:13.828Z,22.37
2018-12-15T01:54:17.565Z,26.27
2018-12-15T01:55:21.413Z,21.80
2018-12-15T01:56:25.262Z,27.90
2018-12-15T01:57:28.974Z,26.25
2018-12-15T01:58:32.691Z,24.70
2018-12-15T01:59:36.470Z,26.12
2018-12-15T02:00:40.239Z,29.07
2018-12-15T02:01:44.695Z,26.97
2018-12-15T02:02:48.381Z,23.62
2018-12-15T02:03:53.677Z,21.17
2018-12-15T02:04:57.441Z,26.25
2018-12-15T02:06:01.266Z,25.50
2018-12-15T02:07:05.010Z,25.72
2018-12-15T02:08:08.729Z,25.45
2018-12-15T02:09:12.507Z,25.37
2018-12-15T02:10:18.314Z,25.15
2018-12-15T02:11:22.069Z,26.05
2018-12-15T02:12:25.840Z,26.77
2018-12-15T02:13:29.675Z,25.25
2018-12-15T02:14:33.426Z,23.50
2018-12-15T02:15:37.118Z,24.63
2018-12-15T02:16:40.914Z,20.45
2018-12-15T02:17:44.651Z,24.00
2018-12-15T02:18:48.430Z,25.40
2018-12-15T02:19:52.592Z,23.20
2018-12-15T02:20:56.403Z,23.65
2018-12-15T02:22:00.134Z,24.00
2018-12-15T02:23:03.927Z,24.92
2018-12-15T02:24:07.640Z,22.00
2018-12-15T02:25:11.418Z,22.32
2018-12-15T02:26:15.160Z,23.38
2018-12-15T02:27:18.931Z,22.77
2018-12-15T02:28:22.702Z,21.27
2018-12-15T02:29:26.490Z,21.93
2018-12-15T02:30:30.260Z,21.07
2018-12-15T02:31:34.017Z,24.20
2018-12-15T02:32:37.787Z,22.50
2018-12-15T02:33:42.490Z,23.40
2018-12-15T02:34:46.230Z,22.45
2018-12-15T02:35:50.128Z,24.90
2018-12-15T02:36:53.891Z,24.77
2018-12-15T02:37:57.638Z,22.35
2018-12-15T02:39:01.423Z,26.27
2018-12-15T02:40:07.104Z,22.77
2018-12-15T02:41:10.874Z,23.05
2018-12-15T02:42:14.830Z,22.40
2018-12-15T02:43:18.579Z,23.27
2018-12-15T02:44:22.295Z,22.10
2018-12-15T02:45:26.158Z,20.50
2018-12-15T02:46:30.438Z,21.20
2018-12-15T02:47:41.176Z,21.40
2018-12-15T02:48:39.826Z,21.00
2018-12-15T02:49:43.598Z,26.42
2018-12-15T02:50:47.375Z,20.70
2018-12-15T02:51:51.181Z,19.65
2018-12-15T02:52:54.933Z,19.65
2018-12-15T02:53:58.754Z,21.55
2018-12-15T02:55:02.471Z,20.57
2018-12-15T02:56:06.243Z,21.25
2018-12-15T02:57:09.984Z,19.52
2018-12-15T02:58:13.778Z,18.77
2018-12-15T02:59:17.501Z,20.48
2018-12-15T03:00:21.233Z,21.23
2018-12-15T03:01:24.960Z,17.65
2018-12-15T03:02:28.771Z,18.67
2018-12-15T03:03:32.481Z,18.92
2018-12-15T03:04:36.178Z,17.50
2018-12-15T03:05:39.914Z,19.02
2018-12-15T03:06:43.611Z,21.42
2018-12-15T03:07:47.416Z,15.75
2018-12-15T03:08:51.162Z,16.62
2018-12-15T03:09:54.896Z,18.20
2018-12-15T03:10:58.673Z,15.85
2018-12-15T03:12:02.372Z,15.03
2018-12-15T03:13:06.126Z,18.35
2018-12-15T03:14:09.838Z,14.03
2018-12-15T03:15:13.623Z,13.60
2018-12-15T03:16:18.399Z,16.77
2018-12-15T03:17:22.130Z,15.13
2018-12-15T03:18:25.852Z,14.98
2018-12-15T03:19:29.514Z,15.68
2018-12-15T03:20:33.387Z,16.97
2018-12-15T03:21:37.066Z,13.28
2018-12-15T03:22:40.881Z,15.48
2018-12-15T03:23:44.628Z,15.05
2018-12-15T03:24:48.361Z,14.68
2018-12-15T03:25:52.076Z,17.23
2018-12-15T03:26:55.856Z,13.13
2018-12-15T03:27:59.620Z,13.03
2018-12-15T03:29:03.278Z,14.05
2018-12-15T03:30:07.052Z,15.58
2018-12-15T03:31:10.887Z,14.40
2018-12-15T03:32:14.596Z,16.60
2018-12-15T03:33:18.383Z,16.55
2018-12-15T03:34:22.131Z,15.88
2018-12-15T03:35:25.869Z,18.98
2018-12-15T03:36:29.614Z,15.28
2018-12-15T03:37:33.309Z,16.75
2018-12-15T03:38:36.980Z,13.60
2018-12-15T03:39:40.693Z,16.30
2018-12-15T03:40:44.438Z,17.48
2018-12-15T03:41:48.209Z,13.48
2018-12-15T03:42:52.005Z,16.97
2018-12-15T03:43:57.559Z,14.15
2018-12-15T03:45:02.450Z,14.10
2018-12-15T03:46:06.228Z,17.62
2018-12-15T03:47:09.959Z,15.80
2018-12-15T03:48:13.724Z,16.60
2018-12-15T03:49:17.459Z,15.32
2018-12-15T03:50:21.243Z,14.98
2018-12-15T03:51:25.000Z,16.37
2018-12-15T03:52:28.741Z,13.93
2018-12-15T03:53:32.434Z,16.67
2018-12-15T03:54:36.218Z,16.55
2018-12-15T03:55:39.974Z,16.40
2018-12-15T03:56:44.334Z,15.78
2018-12-15T03:57:47.954Z,19.82
2018-12-15T03:58:51.846Z,16.20
2018-12-15T03:59:55.547Z,15.78
2018-12-15T04:00:59.258Z,12.30
2018-12-15T04:02:03.182Z,15.93
2018-12-15T04:03:06.967Z,16.70
2018-12-15T04:04:10.777Z,15.45
2018-12-15T04:05:14.493Z,15.83
2018-12-15T04:06:18.280Z,17.48
2018-12-15T04:07:21.983Z,15.13
2018-12-15T04:08:25.745Z,14.87
2018-12-15T04:09:29.528Z,14.95
2018-12-15T04:10:33.252Z,17.52
2018-12-15T04:11:37.074Z,12.73
2018-12-15T04:12:40.768Z,14.75
2018-12-15T04:13:44.536Z,17.07
2018-12-15T04:14:48.371Z,16.05
2018-12-15T04:15:52.142Z,13.88
2018-12-15T04:16:55.899Z,13.40
2018-12-15T04:18:03.702Z,14.87
2018-12-15T04:19:05.336Z,15.63
2018-12-15T04:20:09.077Z,15.05
2018-12-15T04:21:12.850Z,14.43
2018-12-15T04:22:20.555Z,15.90
2018-12-15T04:23:24.366Z,14.55
2018-12-15T04:24:28.190Z,13.05
2018-12-15T04:25:31.868Z,16.82
2018-12-15T04:26:35.601Z,14.35
2018-12-15T04:27:41.444Z,14.63
2018-12-15T04:28:46.302Z,16.25
2018-12-15T04:29:50.237Z,15.15
2018-12-15T04:30:55.223Z,13.40
2018-12-15T04:31:58.963Z,15.13
2018-12-15T04:33:02.773Z,16.80
2018-12-15T04:34:06.571Z,16.48
2018-12-15T04:35:10.302Z,13.10
2018-12-15T04:36:17.158Z,16.85
2018-12-15T04:37:20.996Z,16.50
2018-12-15T04:38:24.848Z,15.13
2018-12-15T04:39:28.544Z,13.90
2018-12-15T04:40:32.502Z,14.95
2018-12-15T04:41:36.311Z,14.40
2018-12-15T04:42:40.038Z,14.75
2018-12-15T04:43:43.847Z,16.50
2018-12-15T04:44:48.719Z,15.13
2018-12-15T04:45:52.585Z,15.65
2018-12-15T04:46:56.498Z,15.28
2018-12-15T04:48:00.228Z,17.37
2018-12-15T04:49:03.986Z,15.25
2018-12-15T04:50:07.756Z,15.43
2018-12-15T04:51:11.543Z,14.95
2018-12-15T04:52:15.426Z,14.98
2018-12-15T04:53:19.220Z,20.08
2018-12-15T04:54:22.976Z,14.40
2018-12-15T04:55:26.708Z,15.40
2018-12-15T04:56:30.421Z,15.93
2018-12-15T04:57:34.187Z,16.48
2018-12-15T04:58:37.938Z,13.68
2018-12-15T04:59:41.793Z,15.58
2018-12-15T05:00:45.679Z,15.63
2018-12-15T05:01:49.474Z,17.15
2018-12-15T05:02:53.255Z,16.70
2018-12-15T05:03:56.998Z,14.98
2018-12-15T05:05:00.738Z,17.62
2018-12-15T05:06:04.482Z,15.00
2018-12-15T05:07:08.300Z,17.12
2018-12-15T05:08:12.026Z,18.12
2018-12-15T05:09:15.814Z,15.80
2018-12-15T05:10:19.583Z,17.92
2018-12-15T05:11:23.375Z,18.25
2018-12-15T05:12:27.186Z,17.27
2018-12-15T05:13:30.922Z,18.75
2018-12-15T05:14:34.601Z,19.15
2018-12-15T05:15:38.292Z,18.40
2018-12-15T05:16:42.046Z,17.15
2018-12-15T05:17:45.805Z,17.07
2018-12-15T05:18:49.866Z,17.92
2018-12-15T05:19:53.704Z,17.60
2018-12-15T05:20:57.486Z,17.40
2018-12-15T05:22:01.702Z,18.35
2018-12-15T05:23:05.651Z,17.98
2018-12-15T05:24:09.442Z,18.82
2018-12-15T05:25:13.190Z,17.17
2018-12-15T05:26:16.981Z,16.10
2018-12-15T05:27:20.819Z,19.32
2018-12-15T05:28:24.544Z,17.07
2018-12-15T05:29:28.308Z,21.02
2018-12-15T05:30:32.686Z,19.40
2018-12-15T05:31:36.394Z,19.37
2018-12-15T05:32:40.111Z,18.15
2018-12-15T05:33:43.821Z,20.55
2018-12-15T05:34:47.590Z,18.87
2018-12-15T05:35:51.267Z,20.85
2018-12-15T05:36:55.071Z,20.95
2018-12-15T05:37:59.883Z,23.12
2018-12-15T05:39:05.692Z,16.93
2018-12-15T05:40:10.373Z,27.40
2018-12-15T05:41:14.227Z,19.00
2018-12-15T05:42:17.951Z,19.07
2018-12-15T05:43:21.683Z,18.80
2018-12-15T05:44:25.889Z,18.02
2018-12-15T05:45:29.598Z,18.25
2018-12-15T05:46:33.369Z,18.90
2018-12-15T05:47:37.154Z,18.82
2018-12-15T05:48:40.960Z,16.23
2018-12-15T05:49:44.700Z,17.10
2018-12-15T05:50:48.525Z,19.60
2018-12-15T05:51:52.369Z,17.45
2018-12-15T05:52:56.139Z,20.17
2018-12-15T05:53:59.898Z,19.25
2018-12-15T05:55:03.834Z,21.20
2018-12-15T05:56:07.597Z,21.85
2018-12-15T05:57:11.338Z,27.22
2018-12-15T05:58:14.993Z,22.20
2018-12-15T05:59:18.777Z,21.97
2018-12-15T06:00:22.499Z,20.08
2018-12-15T06:01:26.303Z,21.95
2018-12-15T06:02:30.153Z,22.13
2018-12-15T06:03:33.894Z,21.10
2018-12-15T06:04:37.679Z,24.10
2018-12-15T06:05:41.453Z,20.65
2018-12-15T06:06:45.200Z,22.48
2018-12-15T06:07:48.909Z,21.87
2018-12-15T06:08:52.729Z,22.70
2018-12-15T06:09:56.482Z,27.50
2018-12-15T06:11:00.251Z,23.20
2018-12-15T06:12:04.346Z,21.12
2018-12-15T06:13:08.354Z,20.27
2018-12-15T06:14:12.140Z,24.85
2018-12-15T06:15:15.914Z,21.93
2018-12-15T06:16:19.688Z,20.35
2018-12-15T06:17:23.426Z,21.17
2018-12-15T06:18:31.568Z,19.05
2018-12-15T06:19:33.634Z,21.70
2018-12-15T06:20:37.313Z,23.77
2018-12-15T06:21:41.065Z,22.98
2018-12-15T06:22:45.626Z,22.70
2018-12-15T06:23:49.320Z,22.77
2018-12-15T06:24:53.083Z,21.65
2018-12-15T06:25:56.824Z,22.32
2018-12-15T06:27:00.587Z,27.10
2018-12-15T06:28:04.339Z,21.40
2018-12-15T06:29:08.069Z,20.75
2018-12-15T06:30:11.806Z,26.02
2018-12-15T06:31:15.567Z,21.10
2018-12-15T06:32:19.284Z,22.52
2018-12-15T06:33:22.994Z,22.58
2018-12-15T06:34:26.733Z,23.25
2018-12-15T06:35:30.605Z,22.05
2018-12-15T06:36:34.355Z,22.10
2018-12-15T06:37:38.133Z,22.42
2018-12-15T06:38:41.890Z,24.67
2018-12-15T06:39:46.703Z,25.85
2018-12-15T06:40:50.635Z,26.05
2018-12-15T06:41:54.309Z,25.75
2018-12-15T06:42:58.095Z,23.10
2018-12-15T06:44:01.842Z,23.95
2018-12-15T06:45:06.528Z,22.55
2018-12-15T06:46:10.284Z,25.50
2018-12-15T06:47:14.006Z,23.42
2018-12-15T06:48:17.779Z,24.20
2018-12-15T06:49:21.623Z,23.60
2018-12-15T06:50:25.377Z,30.23
2018-12-15T06:51:29.053Z,22.87
2018-12-15T06:52:32.811Z,19.17
2018-12-15T06:53:36.663Z,21.85
2018-12-15T06:54:40.366Z,24.67
2018-12-15T06:55:44.138Z,21.23
2018-12-15T06:56:47.915Z,24.67
2018-12-15T06:57:51.578Z,22.40
2018-12-15T06:58:55.829Z,23.75
2018-12-15T06:59:59.542Z,22.17
2018-12-15T07:01:03.405Z,22.85
2018-12-15T07:02:07.221Z,21.70
2018-12-15T07:03:10.970Z,22.17
2018-12-15T07:04:14.820Z,27.62
2018-12-15T07:05:18.845Z,21.10
2018-12-15T07:06:22.534Z,23.22
2018-12-15T07:07:26.293Z,21.12
2018-12-15T07:08:30.066Z,22.73
2018-12-15T07:09:33.819Z,20.75
2018-12-15T07:10:37.630Z,24.37
2018-12-15T07:11:41.391Z,23.67
2018-12-15T07:12:45.168Z,23.57
2018-12-15T07:13:48.935Z,22.02
2018-12-15T07:14:52.631Z,22.20
2018-12-15T07:15:56.413Z,21.68
2018-12-15T07:17:00.177Z,25.00
2018-12-15T07:18:03.915Z,21.42
2018-12-15T07:19:07.698Z,21.50
2018-12-15T07:20:11.518Z,23.52
2018-12-15T07:21:15.316Z,23.73
2018-12-15T07:22:19.035Z,21.77
2018-12-15T07:23:22.819Z,21.07
2018-12-15T07:24:26.555Z,23.15
2018-12-15T07:25:30.750Z,25.30
2018-12-15T07:26:34.479Z,23.90
2018-12-15T07:27:38.149Z,21.77
2018-12-15T07:28:41.938Z,25.43
2018-12-15T07:29:45.654Z,19.75
2018-12-15T07:30:49.485Z,23.52
2018-12-15T07:31:53.290Z,24.67
2018-12-15T07:32:57.042Z,26.17
2018-12-15T07:34:00.731Z,24.50
2018-12-15T07:35:04.502Z,25.10
2018-12-15T07:36:08.237Z,23.83
2018-12-15T07:37:11.974Z,20.72
2018-12-15T07:38:15.791Z,23.73
2018-12-15T07:39:19.586Z,24.27
2018-12-15T07:40:23.346Z,22.25
2018-12-15T07:41:27.583Z,23.70
2018-12-15T07:42:31.341Z,25.00
2018-12-15T07:43:35.145Z,23.15
2018-12-15T07:44:39.047Z,25.17
2018-12-15T07:45:42.767Z,23.75
2018-12-15T07:46:46.549Z,27.07
2018-12-15T07:47:50.285Z,22.93
2018-12-15T07:48:54.143Z,24.85
2018-12-15T07:49:57.868Z,26.42
2018-12-15T07:51:01.655Z,26.52
2018-12-15T07:52:05.448Z,27.30
2018-12-15T07:53:09.218Z,26.10
2018-12-15T07:54:12.955Z,26.93
2018-12-15T07:55:16.733Z,27.87
2018-12-15T07:56:23.303Z,27.20
2018-12-15T07:57:27.065Z,27.35
2018-12-15T07:58:30.775Z,24.15
2018-12-15T07:59:34.593Z,21.73
2018-12-15T08:00:38.378Z,30.08
2018-12-15T08:01:42.237Z,26.62
2018-12-15T08:02:46.033Z,25.95
2018-12-15T08:03:49.810Z,23.57
2018-12-15T08:04:53.878Z,27.60
2018-12-15T08:05:57.735Z,23.60
2018-12-15T08:07:01.545Z,23.18
2018-12-15T08:08:05.358Z,24.10
2018-12-15T08:09:10.974Z,24.20
2018-12-15T08:10:16.721Z,26.77
2018-12-15T08:11:26.033Z,24.77
2018-12-15T08:12:35.161Z,24.50
2018-12-15T08:13:40.879Z,26.23
2018-12-15T08:14:44.727Z,23.30
2018-12-15T08:15:48.752Z,25.12
2018-12-15T08:16:52.509Z,28.07
2018-12-15T08:17:56.279Z,22.35
2018-12-15T08:19:00.104Z,23.30
2018-12-15T08:20:05.615Z,26.57
2018-12-15T08:21:09.366Z,26.02
2018-12-15T08:22:13.256Z,24.60
2018-12-15T08:23:16.978Z,22.90
2018-12-15T08:24:20.750Z,24.05
2018-12-15T08:25:24.579Z,22.10
2018-12-15T08:26:28.415Z,25.77
2018-12-15T08:27:32.220Z,27.07
2018-12-15T08:28:35.984Z,23.75
2018-12-15T08:29:39.778Z,24.10
2018-12-15T08:30:43.567Z,23.20
2018-12-15T08:31:47.332Z,27.20
2018-12-15T08:32:51.128Z,26.25
2018-12-15T08:33:54.967Z,27.13
2018-12-15T08:34:59.527Z,38.05
2018-12-15T08:36:03.307Z,31.57
2018-12-15T08:37:07.059Z,24.30
2018-12-15T08:38:10.945Z,24.27
2018-12-15T08:39:14.835Z,28.52
2018-12-15T08:40:19.039Z,28.02
2018-12-15T08:41:22.889Z,32.48
2018-12-15T08:42:26.665Z,31.75
2018-12-15T08:43:30.486Z,26.75
2018-12-15T08:44:34.243Z,28.90
2018-12-15T08:45:38.038Z,26.85
2018-12-15T08:46:41.947Z,29.35
2018-12-15T08:47:45.671Z,25.50
2018-12-15T08:48:49.467Z,26.62
2018-12-15T08:49:53.157Z,25.37
2018-12-15T08:50:57.114Z,29.90
2018-12-15T08:52:00.821Z,25.70
2018-12-15T08:53:04.617Z,26.75
2018-12-15T08:54:08.427Z,26.00
2018-12-15T08:55:12.280Z,26.42
2018-12-15T08:56:16.121Z,26.42
2018-12-15T08:57:24.991Z,26.33
2018-12-15T08:58:28.720Z,29.00
2018-12-15T08:59:32.588Z,28.98
2018-12-15T09:00:36.410Z,27.40
2018-12-15T09:01:40.124Z,32.30
2018-12-15T09:02:43.892Z,27.13
2018-12-15T09:03:48.080Z,29.00
2018-12-15T09:04:51.821Z,30.37
2018-12-15T09:05:55.646Z,31.70
2018-12-15T09:06:59.425Z,27.95
2018-12-15T09:08:03.545Z,28.30
2018-12-15T09:09:07.290Z,27.87
2018-12-15T09:10:12.147Z,25.77
2018-12-15T09:11:15.906Z,25.77
2018-12-15T09:12:19.722Z,29.15
2018-12-15T09:13:23.430Z,29.98
2018-12-15T09:14:27.222Z,32.08
2018-12-15T09:15:31.029Z,27.37
2018-12-15T09:16:34.731Z,30.10
2018-12-15T09:17:38.622Z,25.88
2018-12-15T09:18:42.342Z,30.95
2018-12-15T09:19:46.153Z,24.30
2018-12-15T09:20:50.934Z,29.35
2018-12-15T09:21:54.867Z,29.63
2018-12-15T09:22:58.664Z,31.25
2018-12-15T09:24:02.432Z,36.73
2018-12-15T09:25:06.184Z,32.80
2018-12-15T09:26:09.921Z,29.00
2018-12-15T09:27:13.702Z,29.70
2018-12-15T09:28:17.505Z,29.63
2018-12-15T09:29:21.256Z,27.00
2018-12-15T09:30:25.413Z,30.75
2018-12-15T09:31:29.183Z,29.65
2018-12-15T09:32:33.105Z,28.98
2018-12-15T09:33:36.984Z,31.35
2018-12-15T09:34:40.800Z,30.72
2018-12-15T09:35:44.489Z,27.30
2018-12-15T09:36:48.239Z,27.15
2018-12-15T09:37:52.058Z,33.90
2018-12-15T09:38:55.835Z,28.80
2018-12-15T09:39:59.593Z,29.85
2018-12-15T09:41:03.362Z,28.87
2018-12-15T09:42:07.239Z,32.08
2018-12-15T09:43:10.879Z,31.00
2018-12-15T09:44:14.546Z,29.50
2018-12-15T09:45:18.282Z,30.23
2018-12-15T09:46:22.046Z,27.67
2018-12-15T09:47:25.771Z,26.75
2018-12-15T09:48:29.487Z,30.25
2018-12-15T09:49:33.201Z,27.42
2018-12-15T09:50:36.966Z,28.90
2018-12-15T09:51:40.787Z,24.00
2018-12-15T09:52:44.557Z,28.98
2018-12-15T09:53:48.368Z,27.17
2018-12-15T09:54:52.147Z,27.73
2018-12-15T09:55:55.896Z,30.45
2018-12-15T09:56:59.732Z,28.57
2018-12-15T09:58:03.523Z,29.82
2018-12-15T09:59:07.247Z,31.05
2018-12-15T10:00:11.061Z,29.45
2018-12-15T10:01:14.817Z,34.50
2018-12-15T10:02:18.598Z,27.58
2018-12-15T10:03:22.417Z,28.75
2018-12-15T10:04:26.310Z,30.23
2018-12-15T10:05:30.156Z,29.10
2018-12-15T10:06:33.895Z,29.63
2018-12-15T10:07:37.635Z,29.25
2018-12-15T10:08:41.391Z,30.72
2018-12-15T10:09:45.141Z,27.65
2018-12-15T10:10:49.017Z,32.40
2018-12-15T10:11:52.827Z,32.35
2018-12-15T10:12:56.455Z,28.77
2018-12-15T10:14:00.539Z,31.20
2018-12-15T10:15:05.025Z,30.30
2018-12-15T10:16:09.830Z,35.78
2018-12-15T10:17:13.577Z,33.30
2018-12-15T10:18:17.433Z,32.10
2018-12-15T10:19:24.229Z,30.30
2018-12-15T10:20:26.896Z,31.35
2018-12-15T10:21:30.668Z,30.32
2018-12-15T10:22:34.412Z,34.20
2018-12-15T10:23:38.316Z,32.50
2018-12-15T10:24:42.031Z,32.63
2018-12-15T10:25:45.824Z,29.05
2018-12-15T10:26:49.960Z,31.85
2018-12-15T10:27:53.721Z,33.42
2018-12-15T10:28:57.627Z,30.10
2018-12-15T10:30:06.985Z,33.33
2018-12-15T10:31:16.416Z,30.17
2018-12-15T10:32:25.822Z,30.37
2018-12-15T10:33:29.718Z,30.17
2018-12-15T10:34:33.502Z,32.08
2018-12-15T10:35:37.264Z,35.58
2018-12-15T10:36:41.110Z,32.45
2018-12-15T10:37:44.782Z,32.70
2018-12-15T10:38:48.613Z,31.87
2018-12-15T10:39:52.544Z,37.17
2018-12-15T10:40:57.400Z,33.80
2018-12-15T10:42:01.138Z,32.08
2018-12-15T10:43:05.882Z,31.50
2018-12-15T10:44:09.690Z,35.05
2018-12-15T10:45:14.406Z,34.80
2018-12-15T10:46:18.210Z,31.55
2018-12-15T10:47:23.857Z,36.42
2018-12-15T10:48:29.538Z,32.20
2018-12-15T10:49:33.471Z,35.08
2018-12-15T10:50:37.172Z,37.28
2018-12-15T10:51:40.923Z,36.95
2018-12-15T10:52:44.645Z,31.77
2018-12-15T10:53:48.531Z,34.25
2018-12-15T10:54:52.312Z,38.10
2018-12-15T10:55:56.048Z,39.15
2018-12-15T10:56:59.782Z,37.03
2018-12-15T10:58:03.533Z,34.55
2018-12-15T10:59:08.498Z,37.53
2018-12-15T11:00:29.186Z,33.78
2018-12-15T11:01:33.190Z,36.35
2018-12-15T11:02:36.987Z,34.80
2018-12-15T11:03:41.846Z,33.95
2018-12-15T11:04:45.625Z,34.78
2018-12-15T11:05:49.350Z,37.73
2018-12-15T11:06:53.113Z,35.88
2018-12-15T11:07:56.850Z,39.67
2018-12-15T11:09:00.569Z,38.80
2018-12-15T11:10:04.740Z,37.33
2018-12-15T11:11:08.488Z,36.40
2018-12-15T11:12:12.175Z,36.75
2018-12-15T11:13:15.920Z,37.13
2018-12-15T11:14:19.579Z,40.63
2018-12-15T11:15:23.394Z,36.00
2018-12-15T11:16:27.172Z,39.58
2018-12-15T11:17:30.892Z,35.25
2018-12-15T11:18:34.662Z,42.25
2018-12-15T11:19:38.373Z,35.70
2018-12-15T11:20:42.129Z,33.60
2018-12-15T11:21:48.511Z,38.33
2018-12-15T11:22:52.186Z,35.88
2018-12-15T11:23:55.930Z,35.35
2018-12-15T11:24:59.769Z,35.08
2018-12-15T11:26:03.547Z,35.08
2018-12-15T11:27:07.356Z,33.33
2018-12-15T11:28:11.091Z,36.00
2018-12-15T11:29:14.829Z,35.78
2018-12-15T11:30:18.612Z,38.73
2018-12-15T11:32:37.062Z,33.48
2018-12-15T11:33:40.895Z,31.45
2018-12-15T11:34:44.666Z,32.55
2018-12-15T11:35:48.421Z,32.05
2018-12-15T11:36:52.250Z,34.92
2018-12-15T11:37:55.996Z,35.25
2018-12-15T11:38:59.695Z,39.00
2018-12-15T11:40:04.635Z,39.35
2018-12-15T11:41:08.373Z,37.73
2018-12-15T11:42:12.074Z,41.77
2018-12-15T11:43:15.826Z,35.15
2018-12-15T11:44:19.540Z,38.10
2018-12-15T11:45:23.275Z,36.00
2018-12-15T11:46:27.013Z,33.85
2018-12-15T11:47:31.347Z,35.25
2018-12-15T11:48:35.157Z,32.80
2018-12-15T11:49:43.622Z,36.00
2018-12-15T11:50:44.956Z,38.63
2018-12-15T11:51:48.737Z,35.10
2018-12-15T11:52:52.450Z,37.53
2018-12-15T11:53:56.286Z,35.33
2018-12-15T11:55:00.091Z,37.17
2018-12-15T11:56:03.814Z,39.45
2018-12-15T11:57:07.584Z,38.88
2018-12-15T11:58:11.354Z,38.67
2018-12-15T11:59:15.122Z,38.83
2018-12-15T12:00:18.933Z,37.45
2018-12-15T12:01:22.631Z,37.85
2018-12-15T12:02:31.839Z,41.30
2018-12-15T12:03:32.373Z,38.17
2018-12-15T12:04:36.195Z,32.53
2018-12-15T12:05:39.877Z,38.00
2018-12-15T12:06:43.642Z,41.15
2018-12-15T12:07:47.456Z,37.35
2018-12-15T12:08:51.221Z,32.98
2018-12-15T12:09:55.026Z,36.65
2018-12-15T12:10:58.725Z,33.15
2018-12-15T12:12:02.531Z,39.00
2018-12-15T12:13:06.284Z,32.95
2018-12-15T12:14:10.074Z,36.58
2018-12-15T12:15:13.872Z,32.80
2018-12-15T12:16:17.663Z,36.17
2018-12-15T12:17:21.703Z,38.98
2018-12-15T12:18:25.506Z,36.15
2018-12-15T12:19:29.258Z,41.55
2018-12-15T12:20:34.117Z,39.45
2018-12-15T12:21:39.073Z,38.02
2018-12-15T12:22:42.873Z,35.75
2018-12-15T12:23:46.641Z,36.63
2018-12-15T12:24:52.346Z,35.83
2018-12-15T12:25:58.024Z,34.45
2018-12-15T12:27:01.946Z,40.55
2018-12-15T12:28:05.666Z,38.35
2018-12-15T12:29:09.426Z,37.48
2018-12-15T12:30:14.194Z,39.00
2018-12-15T12:31:17.965Z,36.93
2018-12-15T12:32:21.745Z,35.90
2018-12-15T12:33:25.662Z,39.05
2018-12-15T12:34:29.426Z,39.80
2018-12-15T12:35:33.326Z,38.98
2018-12-15T12:36:37.033Z,39.80
2018-12-15T12:37:40.810Z,36.93
2018-12-15T12:38:44.666Z,37.33
2018-12-15T12:39:48.396Z,37.10
2018-12-15T12:40:52.137Z,39.05
2018-12-15T12:41:55.885Z,36.68
2018-12-15T12:42:59.630Z,39.40
2018-12-15T12:44:03.485Z,38.50
2018-12-15T12:45:07.529Z,41.05
2018-12-15T12:46:11.620Z,38.98
2018-12-15T12:47:15.374Z,37.88
2018-12-15T12:48:19.794Z,41.02
2018-12-15T12:49:23.586Z,34.05
2018-12-15T12:50:27.385Z,35.05
2018-12-15T12:51:31.157Z,32.75
2018-12-15T12:52:34.913Z,37.08
2018-12-15T12:53:39.223Z,38.65
2018-12-15T12:54:42.992Z,36.98
2018-12-15T12:55:46.767Z,37.23
2018-12-15T12:56:50.675Z,38.28
2018-12-15T12:57:54.454Z,40.88
2018-12-15T12:58:58.202Z,38.08
2018-12-15T13:00:01.925Z,42.70
2018-12-15T13:01:06.945Z,38.67
2018-12-15T13:02:10.762Z,35.80
2018-12-15T13:03:14.567Z,38.78
2018-12-15T13:04:18.407Z,37.80
2018-12-15T13:05:22.874Z,36.95
2018-12-15T13:06:26.653Z,34.70
2018-12-15T13:07:30.332Z,34.83
2018-12-15T13:08:34.067Z,35.13
2018-12-15T13:09:37.772Z,42.33
2018-12-15T13:10:41.513Z,37.30
2018-12-15T13:11:45.278Z,38.00
2018-12-15T13:12:49.025Z,37.10
2018-12-15T13:13:52.909Z,36.42
2018-12-15T13:14:56.694Z,35.63
2018-12-15T13:16:00.423Z,35.43
2018-12-15T13:17:04.299Z,38.38
2018-12-15T13:18:08.012Z,37.75
2018-12-15T13:19:11.792Z,39.42
2018-12-15T13:20:15.512Z,36.77
2018-12-15T13:21:19.255Z,38.42
2018-12-15T13:22:23.074Z,37.45
2018-12-15T13:23:26.788Z,38.40
2018-12-15T13:24:30.549Z,38.20
2018-12-15T13:25:34.307Z,40.83
2018-12-15T13:26:38.035Z,35.58
2018-12-15T13:27:41.815Z,39.42
2018-12-15T13:28:45.551Z,38.45
2018-12-15T13:29:49.480Z,37.28
2018-12-15T13:30:53.184Z,38.35
2018-12-15T13:31:56.918Z,40.60
2018-12-15T13:33:00.811Z,40.98
2018-12-15T13:34:04.589Z,41.10
2018-12-15T13:35:08.777Z,38.33
2018-12-15T13:36:16.678Z,37.00
2018-12-15T13:37:20.489Z,36.65
2018-12-15T13:38:24.250Z,39.67
2018-12-15T13:39:28.073Z,38.35
2018-12-15T13:40:31.929Z,35.95
2018-12-15T13:41:35.707Z,42.75
2018-12-15T13:42:39.436Z,39.10
2018-12-15T13:43:43.221Z,37.67
2018-12-15T13:44:47.350Z,38.92
2018-12-15T13:45:51.099Z,36.45